Time;durP1;ratioP1;P1;durP2;ratioP2;P2;SDS_P1;SDS_P2;PMS_P1;PMS_P2;Temp;Humidity;BMP_temperature;BMP_pressure;BME280_temperature;BME280_humidity;BME280_pressure;Samples;Min_cycle;Max_cycle;Signal;HPM_P1;HPM_P2
2022/08/24 00:00:15;;;;;;;7.80;3.65;;;;;;;17.59;52.26;93087.28;2071041;69;20625;-74
2022/08/24 00:02:40;;;;;;;3.83;3.40;;;;;;;17.71;51.42;93087.78;2071155;69;20617;-75
2022/08/24 00:05:07;;;;;;;9.55;3.33;;;;;;;16.85;54.31;93087.03;2067653;69;20152;-75
2022/08/24 00:07:33;;;;;;;4.45;3.28;;;;;;;17.42;52.15;93086.63;2067998;69;20140;-78
2022/08/24 00:09:59;;;;;;;4.10;3.25;;;;;;;17.55;51.75;93087.88;2071180;69;20140;-73
2022/08/24 00:12:27;;;;;;;9.93;3.63;;;;;;;17.52;51.25;93087.03;2067571;69;20685;-74
2022/08/24 00:14:53;;;;;;;4.20;3.03;;;;;;;17.50;51.15;93086.97;2071098;69;20230;-73
2022/08/24 00:17:19;;;;;;;4.30;3.15;;;;;;;17.49;51.81;93084.75;2071322;69;20243;-75
2022/08/24 00:19:46;;;;;;;7.38;3.30;;;;;;;17.51;51.89;93082.00;2071369;69;20243;-74
2022/08/24 00:22:12;;;;;;;6.40;3.50;;;;;;;17.25;53.11;93082.38;2067788;69;20171;-74
2022/08/24 00:24:38;;;;;;;4.63;3.10;;;;;;;17.46;51.03;93078.25;2071102;69;20265;-74
2022/08/24 00:27:05;;;;;;;4.78;3.20;;;;;;;17.37;52.25;93070.78;2071326;69;20140;-75
2022/08/24 00:29:31;;;;;;;3.50;3.00;;;;;;;17.30;52.07;93071.88;2071033;69;20200;-76
2022/08/24 00:31:57;;;;;;;5.57;3.45;;;;;;;17.13;53.01;93075.41;2071065;69;20238;-76
2022/08/24 00:34:24;;;;;;;7.18;3.38;;;;;;;17.24;52.25;93075.22;2071101;69;20156;-74
2022/08/24 00:36:50;;;;;;;5.00;3.17;;;;;;;17.24;51.80;93075.22;2067729;69;20170;-76
2022/08/24 00:39:15;;;;;;;4.88;3.53;;;;;;;17.11;52.82;93066.81;2071007;69;20152;-75
2022/08/24 00:41:44;;;;;;;5.93;3.60;;;;;;;16.87;54.19;93072.19;2070959;69;20614;-75
2022/08/24 00:44:12;;;;;;;8.10;3.53;;;;;;;17.05;52.42;93063.72;2071010;69;20152;-75
2022/08/24 00:46:47;;;;;;;3.65;3.20;;;;;;;16.97;53.61;93066.94;2067593;69;20172;-74
2022/08/24 00:49:21;;;;;;;5.85;3.42;;;;;;;17.10;51.92;93071.78;2070929;69;20164;-75
2022/08/24 00:52:02;;;;;;;4.50;3.53;;;;;;;16.94;53.48;93065.38;2071188;69;20140;-77
2022/08/24 00:54:31;;;;;;;4.97;3.42;;;;;;;16.79;54.20;93069.00;2067612;69;20184;-76
2022/08/24 00:57:01;;;;;;;6.28;4.13;;;;;;;16.94;52.60;93059.69;2070936;69;20144;-76
2022/08/24 00:59:35;;;;;;;4.75;3.63;;;;;;;16.73;54.10;93061.66;2070716;69;20630;-75
2022/08/24 01:02:09;;;;;;;5.80;3.42;;;;;;;16.69;53.62;93069.25;2071231;69;20152;-80
2022/08/24 01:04:42;;;;;;;6.90;4.00;;;;;;;16.72;53.45;93062.28;2068024;69;20612;-74
2022/08/24 01:07:08;;;;;;;7.47;3.40;;;;;;;16.62;54.13;93061.81;2067862;69;20152;-77
2022/08/24 01:09:34;;;;;;;8.50;3.67;;;;;;;16.67;53.39;93072.72;2067770;69;20151;-76
2022/08/24 01:12:00;;;;;;;6.57;4.03;;;;;;;16.78;53.34;93068.25;2067908;69;20241;-79
2022/08/24 01:14:25;;;;;;;5.50;3.65;;;;;;;16.53;53.93;93072.81;2070948;69;20141;-76
2022/08/24 01:19:39;;;;;;;6.18;3.92;;;;;;;16.42;55.17;93075.88;2071018;69;20210;-75
2022/08/24 01:22:32;;;;;;;7.95;4.00;;;;;;;16.53;54.92;93074.94;2071304;69;20683;-76
2022/08/24 01:24:59;;;;;;;7.18;3.80;;;;;;;16.36;55.34;93079.19;2067735;69;20526;-78
2022/08/24 01:27:25;;;;;;;6.85;3.72;;;;;;;16.39;54.84;93080.72;2070943;69;20140;-77
2022/08/24 01:29:52;;;;;;;7.05;4.28;;;;;;;16.29;55.50;93077.44;2067628;69;20209;-75
2022/08/24 01:32:22;;;;;;;6.32;3.47;;;;;;;16.37;55.21;93079.91;2067950;69;20156;-79
2022/08/24 01:34:50;;;;;;;8.63;3.97;;;;;;;16.32;54.81;93081.84;2067668;69;20144;-77
2022/08/24 01:37:16;;;;;;;5.40;3.70;;;;;;;16.20;55.83;93084.84;2071100;69;20190;-74
2022/08/24 01:39:48;;;;;;;5.35;3.67;;;;;;;16.22;55.71;93087.78;2068156;69;20479;-74
2022/08/24 01:42:15;;;;;;;8.60;3.67;;;;;;;16.36;54.01;93075.59;2068103;69;20223;-75
2022/08/24 01:44:43;;;;;;;4.75;3.28;;;;;;;16.12;55.96;93078.03;2065000;69;20148;-76
2022/08/24 01:47:11;;;;;;;7.18;3.92;;;;;;;16.14;55.01;93067.53;2068268;69;20148;-73
2022/08/24 01:49:41;;;;;;;6.90;4.22;;;;;;;16.05;55.96;93074.19;2067800;69;20145;-77
2022/08/24 01:52:14;;;;;;;4.95;3.63;;;;;;;15.96;56.17;93067.41;2071254;69;20588;-76
2022/08/24 01:54:41;;;;;;;6.30;3.80;;;;;;;15.75;57.10;93062.88;2068081;69;20164;-75
2022/08/24 01:57:08;;;;;;;5.95;3.95;;;;;;;15.81;55.73;93070.97;2067464;69;20132;-75
2022/08/24 01:59:37;;;;;;;4.82;3.75;;;;;;;15.82;55.90;93058.22;2071287;69;20154;-74
2022/08/24 02:02:11;;;;;;;5.90;3.53;;;;;;;15.97;55.05;93074.56;2067771;69;20152;-76
2022/08/24 02:04:37;;;;;;;8.07;3.90;;;;;;;16.18;54.32;93070.56;2068162;69;20235;-74
2022/08/24 02:07:04;;;;;;;6.47;3.75;;;;;;;16.09;54.09;93077.25;2071708;69;20140;-74
2022/08/24 02:09:31;;;;;;;8.30;3.90;;;;;;;15.99;55.39;93066.13;2068124;69;20507;-75
2022/08/24 02:12:00;;;;;;;8.45;3.97;;;;;;;15.92;55.29;93063.66;2065291;69;20143;-75
2022/08/24 02:14:27;;;;;;;5.65;3.63;;;;;;;15.77;56.61;93067.94;2067410;69;20183;-75
2022/08/24 02:16:56;;;;;;;10.50;4.20;;;;;;;15.72;56.39;93066.28;2067784;69;20219;-75
2022/08/24 02:19:26;;;;;;;4.75;3.60;;;;;;;15.79;56.17;93070.84;2067975;69;20606;-78
2022/08/24 02:21:53;;;;;;;7.70;4.07;;;;;;;15.78;56.00;93072.22;2068214;69;20137;-76
2022/08/24 02:24:18;;;;;;;6.68;4.18;;;;;;;15.61;56.41;93072.78;2067189;69;20147;-74
2022/08/24 02:26:44;;;;;;;8.38;4.18;;;;;;;15.82;55.01;93071.69;2063369;69;20149;-77
2022/08/24 02:29:11;;;;;;;6.25;3.70;;;;;;;15.63;56.54;93073.63;2063317;69;20699;-81
2022/08/24 02:31:38;;;;;;;5.70;4.00;;;;;;;15.45;56.34;93078.44;2063526;69;20157;-79
2022/08/24 02:34:04;;;;;;;8.38;4.22;;;;;;;15.42;57.37;93071.91;2063609;69;20146;-79
2022/08/24 02:36:30;;;;;;;6.95;4.10;;;;;;;15.29;58.20;93069.84;2063670;69;20638;-77
2022/08/24 02:38:58;;;;;;;5.70;3.95;;;;;;;15.41;56.89;93067.59;2063498;69;20149;-78
2022/08/24 02:41:24;;;;;;;7.05;3.83;;;;;;;15.36;57.15;93073.72;2058127;69;20180;-75
2022/08/24 02:43:52;;;;;;;5.60;3.70;;;;;;;15.42;56.92;93074.75;2063644;69;20592;-75
2022/08/24 02:46:24;;;;;;;9.60;4.20;;;;;;;15.31;57.72;93084.13;2063819;69;20231;-78
2022/08/24 02:48:50;;;;;;;8.57;4.28;;;;;;;15.38;57.22;93071.72;2060998;69;20145;-75
2022/08/24 02:51:24;;;;;;;7.28;4.00;;;;;;;15.30;57.18;93071.31;2063750;69;20145;-75
2022/08/24 02:53:50;;;;;;;5.05;4.05;;;;;;;15.36;56.24;93076.56;2063857;69;20243;-74
2022/08/24 02:56:16;;;;;;;6.43;4.10;;;;;;;15.28;57.94;93076.88;2063866;69;20591;-76
2022/08/24 02:58:44;;;;;;;5.25;3.83;;;;;;;15.33;57.22;93084.22;2064622;69;20152;-79
2022/08/24 03:01:11;;;;;;;5.30;3.75;;;;;;;15.30;57.09;93079.09;2063820;69;20178;-75
2022/08/24 03:03:38;;;;;;;5.45;4.15;;;;;;;15.20;57.82;93088.56;2063764;69;20659;-77
2022/08/24 03:06:04;;;;;;;6.00;4.00;;;;;;;15.25;57.08;93081.72;2063713;69;20240;-81
2022/08/24 03:08:30;;;;;;;4.75;3.97;;;;;;;15.25;56.46;93086.66;2064351;69;20588;-77
2022/08/24 03:10:59;;;;;;;5.45;3.65;;;;;;;15.09;57.20;93089.44;2063849;69;20244;-76
2022/08/24 03:13:26;;;;;;;7.13;4.30;;;;;;;14.90;58.66;93089.88;2064404;69;20141;-75
2022/08/24 03:15:56;;;;;;;6.97;4.25;;;;;;;14.97;58.43;93094.47;2067740;69;20160;-76
2022/08/24 03:18:24;;;;;;;8.30;4.00;;;;;;;14.95;57.79;93088.72;2064282;69;20549;-76
2022/08/24 03:20:52;;;;;;;5.72;3.67;;;;;;;14.91;58.75;93085.66;2064255;69;20145;-76
2022/08/24 03:23:18;;;;;;;4.97;3.72;;;;;;;14.88;58.22;93084.09;2064715;69;20464;-78
2022/08/24 03:25:45;;;;;;;6.35;3.70;;;;;;;14.86;58.96;93087.56;2064752;69;20160;-77
2022/08/24 03:28:11;;;;;;;6.03;3.80;;;;;;;14.96;57.65;93084.50;2064613;69;20140;-77
2022/08/24 03:30:39;;;;;;;5.38;3.42;;;;;;;14.85;58.76;93088.94;2064887;69;20267;-76
2022/08/24 03:33:05;;;;;;;7.07;4.13;;;;;;;14.75;59.37;93074.22;2064958;69;20188;-78
2022/08/24 03:35:33;;;;;;;4.65;3.83;;;;;;;14.91;57.44;93082.84;2064874;69;20160;-74
2022/08/24 03:37:59;;;;;;;5.30;3.47;;;;;;;14.91;57.55;93088.50;2064847;69;20172;-77
2022/08/24 03:40:25;;;;;;;4.72;3.80;;;;;;;15.03;57.62;93082.69;2068302;69;20241;-76
2022/08/24 03:42:54;;;;;;;6.38;4.07;;;;;;;14.85;59.02;93074.75;2064577;69;20585;-78
2022/08/24 03:45:21;;;;;;;6.20;3.83;;;;;;;14.74;58.22;93070.66;2064739;69;20156;-78
2022/08/24 03:47:47;;;;;;;6.03;4.88;;;;;;;14.44;59.66;93071.91;2068087;69;20228;-76
2022/08/24 03:50:13;;;;;;;5.50;3.72;;;;;;;14.62;59.87;93072.88;2064695;69;20222;-75
2022/08/24 03:52:40;;;;;;;6.28;3.88;;;;;;;14.85;57.38;93069.09;2068134;69;20314;-76
2022/08/24 03:55:08;;;;;;;5.00;3.60;;;;;;;14.96;57.01;93065.41;2064672;69;20168;-76
2022/08/24 03:57:34;;;;;;;6.35;4.43;;;;;;;14.85;56.66;93076.88;2068007;69;20235;-78
2022/08/24 04:00:01;;;;;;;5.43;4.47;;;;;;;14.74;57.36;93070.66;2068130;69;20140;-77
2022/08/24 04:02:29;;;;;;;5.57;4.18;;;;;;;14.79;57.59;93073.69;2062020;69;20149;-78
2022/08/24 04:04:55;;;;;;;8.98;3.88;;;;;;;15.04;55.58;93070.00;2061838;69;20132;-77
2022/08/24 04:07:20;;;;;;;4.68;4.10;;;;;;;14.81;56.64;93074.56;2068023;69;20184;-79
2022/08/24 04:09:46;;;;;;;5.90;4.28;;;;;;;14.69;57.83;93073.91;2061821;69;20164;-75
2022/08/24 04:12:12;;;;;;;5.97;3.60;;;;;;;14.67;57.56;93080.22;2064633;69;20197;-81
2022/08/24 04:14:38;;;;;;;6.53;4.10;;;;;;;14.66;58.12;93080.84;2064460;69;20246;-76
2022/08/24 04:17:12;;;;;;;7.93;4.63;;;;;;;14.30;59.42;93077.56;2064657;69;20149;-80
2022/08/24 04:19:56;;;;;;;9.32;4.38;;;;;;;14.39;58.55;93079.44;2068088;69;20167;-78
2022/08/24 04:22:28;;;;;;;5.80;4.50;;;;;;;14.47;58.45;93084.78;2064707;69;20153;-78
2022/08/24 04:24:54;;;;;;;6.85;4.22;;;;;;;14.39;59.24;93084.38;2068330;69;20600;-79
2022/08/24 04:27:21;;;;;;;6.97;4.32;;;;;;;14.30;59.67;93083.22;2068275;69;20168;-76
2022/08/24 04:29:48;;;;;;;7.28;4.10;;;;;;;14.24;59.05;93077.22;2064610;69;20149;-78
2022/08/24 04:32:14;;;;;;;6.63;4.50;;;;;;;14.43;58.44;93087.41;2061829;69;20190;-80
2022/08/24 04:34:43;;;;;;;8.75;4.60;;;;;;;14.31;59.08;93076.19;2068049;69;20231;-77
2022/08/24 04:37:10;;;;;;;6.95;4.70;;;;;;;14.35;59.08;93084.16;2064701;69;20141;-79
2022/08/24 04:39:38;;;;;;;9.30;4.70;;;;;;;14.42;59.20;93078.19;2064705;69;20227;-77
2022/08/24 04:42:04;;;;;;;5.97;4.68;;;;;;;14.45;58.65;93081.88;2064696;69;20160;-76
2022/08/24 04:44:35;;;;;;;11.00;5.05;;;;;;;14.49;57.11;93084.94;2064445;69;20184;-77
2022/08/24 04:47:01;;;;;;;5.88;4.18;;;;;;;14.28;60.16;93083.09;2064634;69;20258;-76
2022/08/24 04:49:28;;;;;;;9.52;4.93;;;;;;;14.27;60.17;93087.31;2064746;69;20147;-77
2022/08/24 04:51:55;;;;;;;5.47;4.60;;;;;;;14.36;59.31;93085.63;2064624;69;20223;-79
2022/08/24 04:54:21;;;;;;;9.27;4.65;;;;;;;14.26;60.01;93091.50;2068094;69;20151;-81
2022/08/24 04:56:58;;;;;;;6.15;4.20;;;;;;;14.61;57.14;93093.31;2065006;69;20243;-79
2022/08/24 04:59:27;;;;;;;7.03;4.80;;;;;;;14.39;59.18;93090.06;2068317;69;20148;-81
2022/08/24 05:01:53;;;;;;;6.78;4.43;;;;;;;14.32;59.55;93096.75;2065041;69;20190;-79
2022/08/24 05:04:20;;;;;;;8.20;4.10;;;;;;;14.10;60.65;93099.09;2064731;69;20148;-80
2022/08/24 05:06:45;;;;;;;6.75;4.40;;;;;;;13.80;61.21;93096.09;2064665;69;20153;-76
2022/08/24 05:09:14;;;;;;;7.38;4.45;;;;;;;14.17;60.42;93093.16;2065008;69;20634;-80
2022/08/24 05:11:39;;;;;;;5.75;4.70;;;;;;;14.09;60.70;93089.88;2064966;69;20159;-80
2022/08/24 05:14:06;;;;;;;6.60;4.30;;;;;;;14.26;59.42;93090.75;2061879;69;20160;-82
2022/08/24 05:16:33;;;;;;;7.40;4.75;;;;;;;14.27;59.90;93098.63;2064789;69;20615;-77
2022/08/24 05:19:01;;;;;;;6.22;4.40;;;;;;;14.27;59.68;93101.47;2064616;69;20136;-77
2022/08/24 05:21:29;;;;;;;9.82;4.30;;;;;;;14.26;59.75;93097.16;2064525;69;20148;-76
2022/08/24 05:23:56;;;;;;;5.30;4.05;;;;;;;14.36;58.52;93099.78;2064554;69;20174;-78
2022/08/24 05:26:26;;;;;;;6.07;3.85;;;;;;;14.67;55.19;93096.50;2064673;69;20246;-75
2022/08/24 05:29:00;;;;;;;5.50;4.40;;;;;;;14.42;58.69;93097.28;2064368;69;20156;-75
2022/08/24 05:31:32;;;;;;;7.03;3.97;;;;;;;14.54;57.90;93100.06;2064729;69;20625;-77
2022/08/24 05:34:03;;;;;;;5.82;4.28;;;;;;;14.76;57.26;93097.66;2064626;69;20164;-80
2022/08/24 05:36:34;;;;;;;7.20;4.30;;;;;;;14.46;58.90;93094.66;2061907;69;20594;-79
2022/08/24 05:39:03;;;;;;;6.88;4.28;;;;;;;14.56;57.85;93100.88;2064699;69;20137;-79
2022/08/24 05:41:31;;;;;;;7.72;4.15;;;;;;;14.62;56.24;93089.88;2064846;69;20231;-79
2022/08/24 05:44:06;;;;;;;6.07;4.25;;;;;;;14.69;56.52;93090.91;2064451;69;20218;-81
2022/08/24 05:46:31;;;;;;;5.32;4.00;;;;;;;14.69;57.33;93088.09;2064613;69;20251;-79
2022/08/24 05:48:59;;;;;;;6.55;4.25;;;;;;;14.64;57.64;93089.97;2064702;69;20156;-77
2022/08/24 05:51:29;;;;;;;5.95;3.70;;;;;;;14.76;56.76;93080.66;2068196;69;20148;-79
2022/08/24 05:54:03;;;;;;;4.28;3.42;;;;;;;14.80;56.14;93098.59;2064466;69;20227;-82
2022/08/24 05:56:35;;;;;;;7.03;3.67;;;;;;;14.83;55.62;93096.59;2064599;69;20145;-82
2022/08/24 05:59:01;;;;;;;5.72;3.50;;;;;;;14.64;57.36;93089.97;2067941;69;20141;-80
2022/08/24 06:01:27;;;;;;;6.50;3.22;;;;;;;14.69;59.12;93090.91;2061744;69;20145;-80
2022/08/24 06:03:56;;;;;;;6.20;3.20;;;;;;;14.78;58.53;93087.13;2064494;69;20155;-78
2022/08/24 06:06:23;;;;;;;3.53;3.17;;;;;;;14.81;57.45;93099.34;2064510;69;20192;-78
2022/08/24 06:08:53;;;;;;;6.30;3.60;;;;;;;14.87;58.64;93094.69;2061821;69;20153;-78
2022/08/24 06:11:27;;;;;;;5.57;3.30;;;;;;;14.82;59.15;93097.97;2067706;69;20172;-76
2022/08/24 06:14:02;;;;;;;5.65;4.30;;;;;;;14.51;59.30;93096.38;2067726;69;20152;-75
2022/08/24 06:16:37;;;;;;;6.97;3.90;;;;;;;14.70;59.08;93095.94;2061642;69;20258;-75
2022/08/24 06:19:03;;;;;;;9.27;4.07;;;;;;;14.19;60.23;93101.00;2064533;69;20148;-75
2022/08/24 06:21:30;;;;;;;5.38;4.40;;;;;;;14.44;59.64;93097.41;2064676;69;20159;-81
2022/08/24 06:23:57;;;;;;;6.80;4.47;;;;;;;14.46;58.61;93100.31;2064517;69;20161;-74
2022/08/24 06:29:11;;;;;;;6.30;3.97;;;;;;;14.84;57.98;93103.72;2064238;69;20137;-74
2022/08/24 06:31:47;;;;;;;6.95;4.22;;;;;;;14.79;58.66;93108.44;2064346;69;20251;-74
2022/08/24 06:34:16;;;;;;;8.15;4.40;;;;;;;14.64;59.30;93109.81;2061649;69;20481;-73
2022/08/24 06:36:42;;;;;;;15.23;7.68;;;;;;;14.69;59.16;93102.25;2067797;69;20167;-75
2022/08/24 06:39:08;;;;;;;20.30;9.85;;;;;;;14.70;59.76;93104.44;2064343;69;20152;-76
2022/08/24 06:41:37;;;;;;;12.75;7.55;;;;;;;15.02;60.47;93103.91;2064281;69;20585;-75
2022/08/24 06:44:11;;;;;;;14.85;6.57;;;;;;;15.37;59.05;93101.44;2064197;69;20199;-74
2022/08/24 06:46:53;;;;;;;7.32;4.78;;;;;;;15.74;57.54;93106.09;2064316;69;20291;-75
2022/08/24 06:49:19;;;;;;;7.03;4.40;;;;;;;16.10;57.35;93104.25;2061457;69;20235;-75
2022/08/24 06:51:52;;;;;;;9.43;4.70;;;;;;;16.36;55.89;93101.19;2064228;69;20168;-77
2022/08/24 06:54:19;;;;;;;8.75;4.80;;;;;;;16.68;56.31;93101.91;2064249;69;20137;-75
2022/08/24 06:56:46;;;;;;;6.60;3.72;;;;;;;16.98;55.87;93103.25;2064350;69;20140;-75
2022/08/24 06:59:11;;;;;;;6.03;4.10;;;;;;;16.98;55.36;93097.56;2068001;69;20224;-75
2022/08/24 07:01:37;;;;;;;5.88;3.55;;;;;;;17.52;55.72;93094.84;2068137;69;20176;-74
2022/08/24 07:04:06;;;;;;;5.30;3.55;;;;;;;17.84;54.39;93086.94;2064714;69;20607;-76
2022/08/24 07:07:00;;;;;;;7.30;3.20;;;;;;;18.33;53.33;93100.25;2061255;69;20157;-76
2022/08/24 07:09:30;;;;;;;4.85;3.55;;;;;;;18.23;51.59;93092.00;2064692;69;20140;-76
2022/08/24 07:11:57;;;;;;;4.53;3.05;;;;;;;18.09;52.33;93088.63;2068127;69;20141;-76
2022/08/24 07:14:23;;;;;;;5.15;3.45;;;;;;;18.50;51.16;93090.16;2067923;69;20587;-77
2022/08/24 07:16:49;;;;;;;6.85;3.83;;;;;;;18.58;49.35;93084.78;2064836;69;20149;-76
2022/08/24 07:19:14;;;;;;;5.88;3.25;;;;;;;19.02;49.27;93080.00;2062002;69;20243;-75
2022/08/24 07:21:41;;;;;;;4.25;3.10;;;;;;;19.39;48.08;93071.97;2064703;69;20177;-75
2022/08/24 07:24:07;;;;;;;4.68;3.10;;;;;;;19.51;46.96;93083.78;2064609;69;20639;-75
2022/08/24 07:26:36;;;;;;;3.83;3.08;;;;;;;19.74;45.94;93074.59;2064778;69;20251;-77
2022/08/24 07:29:07;;;;;;;6.22;3.20;;;;;;;19.51;46.92;93075.22;2067928;69;20342;-77
2022/08/24 07:31:39;;;;;;;3.75;3.10;;;;;;;20.16;45.77;93073.75;2064769;69;20224;-78
2022/08/24 07:34:37;;;;;;;2.97;2.47;;;;;;;20.65;45.65;93070.28;2066392;69;20293;-76
2022/08/24 07:37:06;;;;;;;3.25;2.67;;;;;;;20.50;44.46;93066.28;2062108;69;20145;-78
2022/08/24 07:39:35;;;;;;;4.70;2.90;;;;;;;20.79;44.49;93053.53;2064745;69;20160;-77
2022/08/24 07:42:01;;;;;;;3.53;2.80;;;;;;;21.11;43.75;93058.69;2064870;69;20220;-77
2022/08/24 07:44:26;;;;;;;4.20;2.80;;;;;;;21.29;42.51;93052.72;2061971;69;20162;-76
2022/08/24 07:46:53;;;;;;;5.18;2.80;;;;;;;22.53;40.61;93050.03;2064819;69;20153;-76
2022/08/24 07:49:19;;;;;;;3.47;2.60;;;;;;;21.61;42.09;93049.28;2064853;69;20508;-76
2022/08/24 07:51:45;;;;;;;5.10;2.63;;;;;;;22.55;40.34;93046.50;2064844;69;20145;-78
2022/08/24 07:54:12;;;;;;;4.55;2.72;;;;;;;22.14;41.70;93047.75;2068015;69;20235;-76
2022/08/24 07:56:42;;;;;;;5.93;2.65;;;;;;;22.70;40.87;93044.66;2068067;69;20593;-77
2022/08/24 07:59:08;;;;;;;2.80;2.60;;;;;;;22.80;38.89;93045.59;2061868;69;20148;-78
2022/08/24 08:01:34;;;;;;;5.10;2.63;;;;;;;22.52;38.76;93037.13;2064766;69;20465;-77
2022/08/24 08:04:01;;;;;;;4.80;2.50;;;;;;;23.10;38.18;93032.59;2064772;69;20152;-77
2022/08/24 08:06:26;;;;;;;6.07;2.50;;;;;;;23.41;38.35;93039.59;2064745;69;20152;-77
2022/08/24 08:08:57;;;;;;;3.97;2.90;;;;;;;23.47;38.49;93042.63;2064730;69;20148;-78
2022/08/24 08:11:23;;;;;;;5.68;2.65;;;;;;;23.35;37.73;93031.63;2068140;69;20592;-77
2022/08/24 08:13:49;;;;;;;4.40;2.40;;;;;;;23.90;38.14;93029.00;2067933;69;20137;-77
2022/08/24 08:16:16;;;;;;;5.78;2.70;;;;;;;25.15;36.22;93022.84;2064688;69;20167;-77
2022/08/24 08:18:43;;;;;;;4.72;2.80;;;;;;;24.89;36.61;93029.75;2068194;69;20195;-78
2022/08/24 08:24:15;;;;;;;4.57;2.80;;;;;;;24.54;36.96;93019.91;2064746;69;20160;-77
2022/08/24 08:26:49;;;;;;;2.92;2.63;;;;;;;25.24;36.46;93013.59;2064755;69;20165;-80
2022/08/24 08:29:24;;;;;;;3.45;2.75;;;;;;;24.91;35.66;93014.63;2064417;69;20172;-76
2022/08/24 08:31:55;;;;;;;2.95;2.47;;;;;;;25.67;35.76;93014.03;2061976;69;20144;-77
2022/08/24 08:34:21;;;;;;;3.75;2.60;;;;;;;25.69;34.54;93005.41;2064929;69;20610;-79
2022/08/24 08:36:47;;;;;;;4.00;2.63;;;;;;;26.02;35.98;93006.41;2064743;69;20140;-76
2022/08/24 08:39:18;;;;;;;3.90;2.50;;;;;;;26.78;35.18;93012.72;2064711;69;20213;-76
2022/08/24 08:42:11;;;;;;;4.63;3.08;;;;;;;26.11;35.36;93007.22;2067962;69;20515;-76
2022/08/24 08:44:41;;;;;;;;;;;;;;;25.85;34.39;93007.75;2056921;69;20575;-76
2022/08/24 08:47:29;;;;;;;3.42;2.20;;;;;;;25.26;32.52;92998.50;2064581;69;20053;-76
2022/08/24 08:50:24;;;;;;;2.90;2.22;;;;;;;25.77;33.33;92996.13;2064612;69;20220;-76
2022/08/24 08:53:03;;;;;;;3.63;2.50;;;;;;;26.53;33.84;92997.44;2064719;69;20542;-77
2022/08/24 08:55:31;;;;;;;4.35;2.30;;;;;;;25.87;32.07;92995.50;2064630;69;20142;-77
2022/08/24 08:58:19;;;;;;;3.25;2.33;;;;;;;26.81;33.71;92994.69;2064493;69;20156;-76
2022/08/24 09:01:23;;;;;;;2.70;2.20;;;;;;;27.34;32.84;92989.13;2068077;69;20145;-76
2022/08/24 09:04:20;;;;;;;2.75;2.30;;;;;;;28.41;30.93;92992.88;2063842;69;20164;-78
2022/08/24 09:07:21;;;;;;;3.42;2.20;;;;;;;27.21;32.77;92990.53;2065404;69;20198;-75
2022/08/24 09:10:38;;;;;;;4.05;2.30;;;;;;;28.93;31.11;92991.28;2064635;69;20133;-76
2022/08/24 09:13:13;;;;;;;2.97;2.20;;;;;;;28.61;28.06;92987.03;2059920;69;20172;-74
2022/08/24 09:15:52;;;;;;;3.13;2.10;;;;;;;28.90;27.85;92986.94;2064334;69;20136;-76
2022/08/24 09:18:46;;;;;;;4.47;2.00;;;;;;;28.45;28.57;92984.16;2061697;69;20277;-74
2022/08/24 09:21:40;;;;;;;3.72;2.38;;;;;;;28.80;29.69;92984.06;2064253;69;20152;-75
2022/08/24 09:24:13;;;;;;;4.40;2.25;;;;;;;28.02;29.46;92992.13;2058198;69;20151;-75
2022/08/24 09:26:51;;;;;;;2.78;2.45;;;;;;;28.83;30.84;92980.44;2064404;69;20230;-76
2022/08/24 09:29:27;;;;;;;2.88;2.20;;;;;;;28.19;31.43;92979.09;2064426;69;20160;-75
2022/08/24 09:32:17;;;;;;;3.85;2.65;;;;;;;27.94;29.45;92974.75;2067893;69;20136;-75
2022/08/24 09:34:58;;;;;;;3.55;2.30;;;;;;;29.52;29.80;92970.00;2067927;69;20490;-75
2022/08/24 09:37:39;;;;;;;3.78;2.28;;;;;;;29.76;29.19;92969.88;2067787;69;20172;-75
2022/08/24 09:40:17;;;;;;;3.85;2.20;;;;;;;29.83;27.54;92965.47;2064486;69;20625;-75
2022/08/24 09:42:45;;;;;;;3.67;2.20;;;;;;;30.11;26.28;92967.44;2067695;69;20188;-75
2022/08/24 09:45:57;;;;;;;4.90;2.45;;;;;;;29.81;28.51;92962.56;2067488;69;20243;-75
2022/08/24 09:48:36;;;;;;;5.30;2.20;;;;;;;29.08;27.27;92962.97;2067777;69;20168;-75
2022/08/24 09:51:37;;;;;;;3.03;2.33;;;;;;;29.34;28.47;92959.25;2067802;69;20216;-76
2022/08/24 09:54:18;;;;;;;6.80;2.30;;;;;;;31.15;26.83;92962.75;2050240;70;20178;-75
2022/08/24 09:57:17;;;;;;;5.47;2.80;;;;;;;30.86;26.71;92960.19;2063013;69;20129;-75
2022/08/24 09:59:57;;;;;;;3.17;2.28;;;;;;;31.46;27.84;92956.56;2064102;69;20259;-77
2022/08/24 10:02:45;;;;;;;5.65;2.30;;;;;;;31.03;26.74;92954.91;2067726;69;20172;-77
2022/08/24 10:05:28;;;;;;;5.03;2.05;;;;;;;30.66;26.69;92954.59;2067636;69;20151;-75
2022/08/24 10:08:18;;;;;;;4.55;1.90;;;;;;;30.51;25.29;92945.28;2063501;69;20180;-75
2022/08/24 10:11:18;;;;;;;3.95;1.90;;;;;;;31.88;25.10;92940.69;2067354;69;20227;-76
2022/08/24 10:14:12;;;;;;;4.95;2.00;;;;;;;30.78;24.79;92942.13;2067262;69;20580;-75
2022/08/24 10:16:59;;;;;;;4.40;1.70;;;;;;;31.67;25.76;92936.66;2067430;69;20526;-73
2022/08/24 10:20:02;;;;;;;3.75;1.90;;;;;;;32.30;25.92;92930.53;2070942;69;20681;-73
2022/08/24 10:22:50;;;;;;;7.35;2.03;;;;;;;32.88;24.82;92927.28;2070815;69;20172;-74
2022/08/24 10:25:44;;;;;;;2.13;1.92;;;;;;;32.87;22.27;92932.41;2070491;69;20139;-75
2022/08/24 10:28:38;;;;;;;5.10;2.10;;;;;;;32.04;23.94;92922.97;2070598;69;20151;-75
2022/08/24 10:31:22;;;;;;;3.80;1.65;;;;;;;32.95;22.92;92919.19;2071154;69;20227;-74
2022/08/24 10:34:25;;;;;;;2.67;1.70;;;;;;;33.68;22.90;92916.88;2067808;69;20586;-74
2022/08/24 10:37:29;;;;;;;2.58;1.58;;;;;;;32.60;22.55;92914.00;2071143;69;20144;-75
2022/08/24 10:40:05;;;;;;;1.83;1.40;;;;;;;33.45;23.63;92910.84;2071215;69;20239;-76
2022/08/24 10:46:21;;;;;;;2.10;1.73;;;;;;;34.07;22.45;92908.69;2067348;69;20638;-76
2022/08/24 10:49:13;;;;;;;1.70;1.30;;;;;;;35.94;20.90;92913.72;2067773;69;20595;-73
2022/08/24 10:52:21;;;;;;;3.55;1.60;;;;;;;35.81;20.49;92906.81;2069165;69;20173;-73
2022/08/24 10:54:46;;;;;;;2.65;1.60;;;;;;;35.58;19.00;92906.81;2070500;69;20589;-74
2022/08/24 10:57:25;;;;;;;2.15;1.30;;;;;;;36.24;19.69;92912.03;2067828;69;20630;-74
2022/08/24 11:00:06;;;;;;;1.50;1.15;;;;;;;36.98;19.37;92906.63;2071210;69;20145;-74
2022/08/24 11:02:38;;;;;;;7.10;1.60;;;;;;;38.97;17.05;92906.13;2071228;69;20694;-72
2022/08/24 11:05:15;;;;;;;1.65;1.30;;;;;;;40.71;17.13;92910.53;2071243;69;20140;-74
2022/08/24 11:08:17;;;;;;;1.55;1.20;;;;;;;40.76;15.43;92905.84;2071329;69;20209;-73
2022/08/24 11:10:42;;;;;;;2.72;1.40;;;;;;;39.53;16.25;92905.81;2068093;69;20249;-73
2022/08/24 11:13:26;;;;;;;2.08;1.42;;;;;;;43.75;15.08;92917.13;2071101;69;20239;-73
2022/08/24 11:15:57;;;;;;;1.88;1.30;;;;;;;44.37;13.75;92908.75;2064752;69;20784;-74
2022/08/24 11:18:23;;;;;;;2.53;1.20;;;;;;;45.58;13.61;92913.94;2064476;69;20173;-73
2022/08/24 11:20:52;;;;;;;1.67;0.93;;;;;;;44.59;12.02;92904.31;2064488;69;20490;-72
2022/08/24 11:23:23;;;;;;;3.55;1.17;;;;;;;46.45;12.80;92902.59;2064486;69;20595;-73
2022/08/24 11:26:01;;;;;;;7.40;1.80;;;;;;;48.10;11.97;92907.84;2064481;69;20140;-73
2022/08/24 11:28:38;;;;;;;3.83;1.13;;;;;;;47.63;12.30;92897.34;2064217;69;20505;-72
2022/08/24 11:31:03;;;;;;;2.50;1.10;;;;;;;47.37;11.15;92900.09;2064389;69;20149;-72
2022/08/24 11:33:44;;;;;;;3.67;1.48;;;;;;;47.24;12.03;92889.97;2064380;69;20203;-73
2022/08/24 11:36:16;;;;;;;3.47;1.00;;;;;;;48.90;11.32;92892.44;2063829;69;20222;-73
2022/08/24 11:38:41;;;;;;;3.92;1.35;;;;;;;49.32;11.36;92885.81;2064463;69;20163;-72
2022/08/24 11:41:19;;;;;;;4.43;1.33;;;;;;;50.82;10.29;92886.09;2064140;69;20133;-75
2022/08/24 11:44:05;;;;;;;4.43;1.60;;;;;;;49.38;10.54;92878.59;2063642;69;20141;-73
2022/08/24 11:46:45;;;;;;;3.13;1.10;;;;;;;47.64;10.85;92865.25;2064439;69;20149;-74
2022/08/24 11:49:23;;;;;;;2.13;1.20;;;;;;;50.28;10.65;92868.50;2064629;69;20270;-74
2022/08/24 11:51:52;;;;;;;2.97;1.20;;;;;;;48.33;10.40;92859.00;2064560;69;20608;-73
2022/08/24 11:54:37;;;;;;;5.20;1.52;;;;;;;50.33;10.16;92860.56;2064628;69;20141;-73
2022/08/24 11:58:01;;;;;;;3.65;1.40;;;;;;;45.81;11.31;92859.56;2064488;69;20749;-73
2022/08/24 12:00:41;;;;;;;2.45;1.00;;;;;;;48.83;11.22;92863.06;2057229;69;20151;-73
2022/08/24 12:03:31;;;;;;;1.20;0.80;;;;;;;47.24;10.43;92846.00;2054479;69;20166;-73
2022/08/24 12:06:19;;;;;;;1.38;0.70;;;;;;;47.97;10.28;92845.47;2063653;69;20228;-73
2022/08/24 12:08:54;;;;;;;1.95;0.73;;;;;;;47.67;10.74;92839.69;2064820;69;20206;-74
2022/08/24 12:11:34;;;;;;;2.20;0.80;;;;;;;48.60;10.66;92833.63;2064862;69;20148;-73